Time;durP1;ratioP1;P1;durP2;ratioP2;P2;SDS_P1;SDS_P2;PMS_P1;PMS_P2;Temp;Humidity;BMP_temperature;BMP_pressure;BME280_temperature;BME280_humidity;BME280_pressure;Samples;Min_cycle;Max_cycle;Signal;HPM_P1;HPM_P2
2023/04/30 00:00:35;;;;;;;29.70;27.20;;;;;;;10.35;100.00;97730.56;106778;1276;22524;-75
2023/04/30 00:03:23;;;;;;;29.00;26.70;;;;;;;10.34;100.00;97729.55;106717;1276;22596;-76
2023/04/30 00:05:51;;;;;;;27.30;25.20;;;;;;;10.32;100.00;97729.13;106832;1276;25226;-78
2023/04/30 00:08:19;;;;;;;27.70;25.50;;;;;;;10.31;100.00;97727.27;106885;1276;22534;-74
2023/04/30 00:10:47;;;;;;;26.40;24.40;;;;;;;10.30;100.00;97730.79;106744;1276;23058;-74
2023/04/30 00:13:16;;;;;;;26.30;24.10;;;;;;;10.28;100.00;97733.24;106743;1276;22529;-75
2023/04/30 00:15:43;;;;;;;26.20;24.00;;;;;;;10.26;100.00;97733.70;106735;1276;22647;-74
2023/04/30 00:18:11;;;;;;;27.90;25.60;;;;;;;10.23;100.00;97732.94;106723;1276;22533;-74
2023/04/30 00:20:39;;;;;;;29.40;27.10;;;;;;;10.21;100.00;97733.58;106696;1276;24361;-74
2023/04/30 00:23:07;;;;;;;29.80;27.30;;;;;;;10.20;100.00;97735.14;106590;1276;24241;-75
2023/04/30 00:25:35;;;;;;;28.80;26.50;;;;;;;10.19;100.00;97731.67;106750;1276;23155;-75
2023/04/30 00:28:04;;;;;;;31.10;28.50;;;;;;;10.18;100.00;97738.11;106766;1276;22819;-75
2023/04/30 00:30:32;;;;;;;30.00;27.70;;;;;;;10.19;100.00;97741.10;106842;1260;24334;-75
2023/04/30 00:33:00;;;;;;;30.10;27.80;;;;;;;10.17;100.00;97739.04;106466;1276;24238;-75
2023/04/30 00:35:28;;;;;;;30.50;28.00;;;;;;;10.16;100.00;97741.27;106711;1276;22664;-75
2023/04/30 00:37:56;;;;;;;31.00;28.40;;;;;;;10.15;100.00;97743.35;106718;1276;22642;-75
2023/04/30 00:40:25;;;;;;;29.90;27.50;;;;;;;10.11;100.00;97745.66;106740;1276;22645;-75
2023/04/30 00:42:54;;;;;;;31.70;29.20;;;;;;;10.10;100.00;97744.03;106704;1276;25320;-74
2023/04/30 00:45:22;;;;;;;31.40;28.10;;;;;;;10.06;100.00;97749.05;106608;1276;23272;-75
2023/04/30 00:47:50;;;;;;;31.30;28.80;;;;;;;10.07;100.00;97748.46;106675;1276;24378;-75
2023/04/30 00:50:19;;;;;;;32.10;29.30;;;;;;;10.10;100.00;97749.79;106720;1276;22531;-75
2023/04/30 00:52:47;;;;;;;29.90;27.50;;;;;;;10.08;100.00;97751.29;106605;1276;24196;-75
2023/04/30 00:55:16;;;;;;;30.70;28.10;;;;;;;10.06;100.00;97751.95;106614;1276;22933;-75
2023/04/30 00:57:45;;;;;;;30.80;28.00;;;;;;;10.04;100.00;97751.73;106709;1276;22637;-75
2023/04/30 01:00:14;;;;;;;31.70;29.00;;;;;;;10.02;100.00;97749.67;106832;1276;22525;-75
2023/04/30 01:02:42;;;;;;;28.60;26.20;;;;;;;9.99;100.00;97751.17;106738;1276;22647;-75
2023/04/30 01:05:11;;;;;;;30.60;28.00;;;;;;;9.99;100.00;97752.05;106472;1276;24366;-74
2023/04/30 01:07:45;;;;;;;31.70;29.00;;;;;;;9.97;100.00;97750.41;106750;1276;25512;-74
2023/04/30 01:10:14;;;;;;;32.80;30.00;;;;;;;9.97;100.00;97750.08;106700;1276;22644;-74
2023/04/30 01:12:42;;;;;;;33.90;30.80;;;;;;;9.95;100.00;97751.90;106723;1276;22629;-74
2023/04/30 01:15:23;;;;;;;31.70;29.00;;;;;;;9.95;100.00;97755.73;106707;1276;22630;-75
2023/04/30 01:17:57;;;;;;;32.10;29.30;;;;;;;9.94;100.00;97756.47;106708;1276;23184;-75
2023/04/30 01:20:28;;;;;;;32.60;29.70;;;;;;;9.96;100.00;97759.09;106706;1276;22535;-74
2023/04/30 01:23:07;;;;;;;31.50;28.80;;;;;;;9.96;100.00;97761.88;106778;1276;24205;-75
2023/04/30 01:25:57;;;;;;;29.30;26.80;;;;;;;9.95;100.00;97762.13;106727;1276;24352;-74
2023/04/30 01:28:27;;;;;;;28.20;25.70;;;;;;;9.96;100.00;97762.33;106672;1276;24391;-74
2023/04/30 01:30:56;;;;;;;28.80;26.10;;;;;;;9.88;100.00;97767.90;106701;1276;25336;-75
2023/04/30 01:33:24;;;;;;;26.60;24.20;;;;;;;9.86;100.00;97770.80;106502;1276;24279;-74
2023/04/30 01:36:17;;;;;;;27.30;24.90;;;;;;;9.81;100.00;97769.29;106664;1276;22521;-75
2023/04/30 01:39:13;;;;;;;30.00;27.30;;;;;;;9.79;100.00;97768.98;106724;1276;22536;-75
2023/04/30 01:41:49;;;;;;;28.10;25.40;;;;;;;9.73;100.00;97769.73;106600;1276;22763;-75
2023/04/30 01:44:39;;;;;;;27.00;24.50;;;;;;;9.69;100.00;97772.92;106716;1276;24369;-75
2023/04/30 01:47:29;;;;;;;26.70;24.30;;;;;;;9.65;100.00;97770.09;106671;1276;23313;-75
2023/04/30 01:50:10;;;;;;;25.50;23.20;;;;;;;9.63;100.00;97764.52;106719;1269;22542;-75
2023/04/30 01:52:45;;;;;;;24.40;22.20;;;;;;;9.63;100.00;97766.69;106741;1276;22931;-74
2023/04/30 01:55:20;;;;;;;24.20;22.00;;;;;;;9.64;100.00;97770.70;106751;1276;22975;-75
2023/04/30 01:58:00;;;;;;;24.10;22.00;;;;;;;9.64;100.00;97770.33;107025;1276;23192;-77
2023/04/30 02:00:29;;;;;;;25.00;22.50;;;;;;;9.62;100.00;97772.23;106659;1276;22631;-77
2023/04/30 02:02:57;;;;;;;24.00;21.80;;;;;;;9.61;100.00;97765.69;107000;1276;22627;-76
2023/04/30 02:05:26;;;;;;;23.30;21.20;;;;;;;9.63;100.00;97769.27;106920;1276;22731;-75
2023/04/30 02:07:55;;;;;;;21.50;19.60;;;;;;;9.62;100.00;97768.79;106780;1276;22517;-77
2023/04/30 02:10:25;;;;;;;20.70;18.70;;;;;;;9.61;100.00;97767.15;106771;1276;25284;-76
2023/04/30 02:12:53;;;;;;;18.40;16.70;;;;;;;9.56;100.00;97765.55;106708;1276;22735;-75
2023/04/30 02:15:21;;;;;;;20.40;18.40;;;;;;;9.58;100.00;97765.21;106500;1276;22521;-75
2023/04/30 02:17:50;;;;;;;19.00;17.40;;;;;;;9.53;100.00;97768.09;106764;1276;24246;-78
2023/04/30 02:20:18;;;;;;;17.20;15.70;;;;;;;9.52;100.00;97769.98;106757;1276;22531;-76
2023/04/30 02:22:46;;;;;;;17.20;15.50;;;;;;;9.54;100.00;97773.13;106875;1276;25469;-76
2023/04/30 02:25:14;;;;;;;16.40;14.90;;;;;;;9.57;100.00;97779.31;106874;1276;22723;-76
2023/04/30 02:27:42;;;;;;;15.30;13.70;;;;;;;9.58;100.00;97780.55;106876;1276;22778;-76
2023/04/30 02:30:10;;;;;;;15.50;14.00;;;;;;;9.53;100.00;97783.57;106879;1276;25380;-76
2023/04/30 02:32:38;;;;;;;12.80;11.60;;;;;;;9.53;100.00;97782.61;106539;1276;24289;-77
2023/04/30 02:35:06;;;;;;;13.60;12.30;;;;;;;9.48;100.00;97788.17;106693;1266;23066;-75
2023/04/30 02:37:34;;;;;;;12.20;11.10;;;;;;;9.48;100.00;97789.85;106773;1276;22560;-77
2023/04/30 02:40:03;;;;;;;11.90;10.90;;;;;;;9.46;100.00;97787.66;106777;1273;24333;-76
2023/04/30 02:42:31;;;;;;;12.30;11.10;;;;;;;9.49;100.00;97791.06;106773;1276;24367;-77
2023/04/30 02:44:59;;;;;;;11.70;10.60;;;;;;;9.46;100.00;97791.28;106515;1276;22537;-78
2023/04/30 02:47:27;;;;;;;10.60;9.50;;;;;;;9.47;100.00;97793.36;106779;1276;25337;-76
2023/04/30 02:49:55;;;;;;;11.00;9.90;;;;;;;9.47;100.00;97789.92;106731;1276;24435;-75
2023/04/30 02:52:25;;;;;;;11.10;10.00;;;;;;;9.46;100.00;97795.27;106605;1276;25274;-75
2023/04/30 02:54:53;;;;;;;10.20;9.30;;;;;;;9.42;100.00;97793.33;106726;1276;22543;-75
2023/04/30 02:57:20;;;;;;;10.70;9.70;;;;;;;9.41;100.00;97792.91;106726;1276;22550;-75
2023/04/30 02:59:48;;;;;;;9.90;8.90;;;;;;;9.39;100.00;97796.71;106603;1276;23897;-75
2023/04/30 03:02:20;;;;;;;10.10;9.20;;;;;;;9.41;100.00;97794.27;106753;1276;22767;-75
2023/04/30 03:04:49;;;;;;;10.60;8.80;;;;;;;9.40;100.00;97796.73;106751;1276;25449;-75
2023/04/30 03:07:17;;;;;;;9.40;8.60;;;;;;;9.40;100.00;97797.73;106874;1276;25393;-75
2023/04/30 03:09:45;;;;;;;9.90;8.90;;;;;;;9.41;100.00;97800.83;106873;1276;24048;-75
2023/04/30 03:12:13;;;;;;;9.80;8.90;;;;;;;9.43;100.00;97800.25;106863;1276;24223;-76
2023/04/30 03:14:41;;;;;;;9.30;8.40;;;;;;;9.43;100.00;97800.26;106877;1276;22793;-76
2023/04/30 03:17:09;;;;;;;10.10;9.10;;;;;;;9.44;100.00;97805.02;106630;1276;23042;-75
2023/04/30 03:19:37;;;;;;;8.40;7.60;;;;;;;9.44;100.00;97805.02;106750;1276;22633;-76
2023/04/30 03:22:05;;;;;;;9.50;8.60;;;;;;;9.44;100.00;97809.11;106621;1255;24435;-75
2023/04/30 03:24:33;;;;;;;8.40;7.60;;;;;;;9.44;100.00;97810.95;106723;1276;25393;-75
2023/04/30 03:27:02;;;;;;;8.40;7.60;;;;;;;9.40;100.00;97812.35;106784;1276;22527;-75
2023/04/30 03:29:30;;;;;;;6.50;5.90;;;;;;;9.35;100.00;97815.05;106813;1266;23897;-75
2023/04/30 03:31:58;;;;;;;7.70;7.00;;;;;;;9.29;100.00;97815.52;106788;1276;22521;-75
2023/04/30 03:34:26;;;;;;;6.80;6.20;;;;;;;9.23;100.00;97822.23;106762;1276;22520;-75
2023/04/30 03:36:54;;;;;;;11.40;10.30;;;;;;;9.22;100.00;97830.41;106576;1276;25130;-74
2023/04/30 03:39:22;;;;;;;14.10;12.80;;;;;;;9.16;100.00;97825.18;106724;1276;25323;-75
2023/04/30 03:41:50;;;;;;;15.30;14.00;;;;;;;9.04;100.00;97835.14;106620;1276;22585;-74
2023/04/30 03:44:18;;;;;;;16.90;15.50;;;;;;;8.87;100.00;97839.29;106755;1276;25619;-74
2023/04/30 03:46:46;;;;;;;17.60;16.20;;;;;;;8.77;100.00;97848.66;106771;1276;24388;-74
2023/04/30 03:49:14;;;;;;;18.10;16.60;;;;;;;8.68;100.00;97848.77;106551;1276;22519;-74
2023/04/30 03:51:42;;;;;;;18.00;16.40;;;;;;;8.57;100.00;97853.02;106862;1272;22543;-75
2023/04/30 03:54:09;;;;;;;21.80;19.80;;;;;;;8.52;100.00;97855.83;106847;1276;22608;-75
2023/04/30 03:56:38;;;;;;;20.00;18.20;;;;;;;8.42;100.00;97865.86;106539;1276;23162;-74
2023/04/30 03:59:06;;;;;;;19.70;17.90;;;;;;;8.30;100.00;97869.09;106748;1276;22521;-74
2023/04/30 04:01:35;;;;;;;21.20;19.30;;;;;;;8.23;100.00;97874.41;106799;1276;22516;-74
2023/04/30 04:04:03;;;;;;;21.50;19.60;;;;;;;8.15;100.00;97877.39;106515;1276;25328;-75
2023/04/30 04:06:32;;;;;;;19.00;17.30;;;;;;;8.07;100.00;97879.77;106735;1276;22539;-74
2023/04/30 04:09:00;;;;;;;18.80;17.20;;;;;;;7.99;100.00;97886.71;106438;1276;25938;-74
2023/04/30 04:11:28;;;;;;;17.50;16.00;;;;;;;7.90;100.00;97889.73;106478;1276;24232;-74
2023/04/30 04:13:56;;;;;;;19.20;17.40;;;;;;;7.85;100.00;97894.83;106730;1276;23021;-74
2023/04/30 04:16:24;;;;;;;18.90;17.30;;;;;;;7.81;100.00;97901.73;106418;1262;24354;-74
2023/04/30 04:18:53;;;;;;;18.90;17.30;;;;;;;7.78;100.00;97908.79;106539;1276;22555;-74
2023/04/30 04:21:21;;;;;;;18.00;16.30;;;;;;;7.75;100.00;97914.65;106510;1270;24075;-74
2023/04/30 04:23:49;;;;;;;15.50;14.10;;;;;;;7.73;100.00;97916.11;106467;1276;22581;-74
2023/04/30 04:26:18;;;;;;;15.90;14.60;;;;;;;7.68;100.00;97921.46;106541;1276;22741;-74
2023/04/30 04:28:46;;;;;;;16.40;15.00;;;;;;;7.67;100.00;97926.02;106711;1276;22559;-74
2023/04/30 04:31:15;;;;;;;17.20;15.70;;;;;;;7.65;100.00;97930.38;106445;1276;22568;-75
2023/04/30 04:33:43;;;;;;;18.90;17.10;;;;;;;7.63;100.00;97930.56;106509;1276;24288;-75
2023/04/30 04:36:11;;;;;;;17.80;16.20;;;;;;;7.63;100.00;97934.79;106464;1276;24346;-75
2023/04/30 04:38:39;;;;;;;19.00;17.30;;;;;;;7.59;100.00;97943.66;106748;1276;25236;-75
2023/04/30 04:41:08;;;;;;;18.30;16.70;;;;;;;7.54;100.00;97944.77;106778;1276;23150;-75
2023/04/30 04:43:36;;;;;;;17.00;15.50;;;;;;;7.46;100.00;97951.56;106532;1276;24055;-75
2023/04/30 04:46:04;;;;;;;19.40;17.50;;;;;;;7.39;100.00;97959.59;106482;1276;22531;-76
2023/04/30 04:48:32;;;;;;;18.20;16.50;;;;;;;7.29;100.00;97965.61;106730;1276;22551;-76
2023/04/30 04:51:00;;;;;;;19.80;17.70;;;;;;;7.20;100.00;97972.83;106433;1276;25526;-76
2023/04/30 04:53:28;;;;;;;19.40;17.50;;;;;;;7.14;100.00;97976.05;106470;1276;24407;-76
2023/04/30 04:55:56;;;;;;;16.20;14.70;;;;;;;7.09;100.00;97982.89;106781;1276;22625;-76
2023/04/30 04:58:24;;;;;;;18.00;16.40;;;;;;;7.11;100.00;97983.36;106758;1276;22619;-76
2023/04/30 05:00:53;;;;;;;18.20;16.70;;;;;;;7.09;100.00;97985.62;106754;1276;23889;-76
2023/04/30 05:03:21;;;;;;;17.40;15.70;;;;;;;7.06;100.00;97990.72;106438;1276;25642;-76
2023/04/30 05:05:50;;;;;;;19.00;17.10;;;;;;;7.05;100.00;97991.64;106754;1276;22599;-76
2023/04/30 05:08:18;;;;;;;18.60;16.60;;;;;;;7.04;100.00;97995.02;106452;1276;22793;-75
2023/04/30 05:10:46;;;;;;;20.20;18.30;;;;;;;7.05;100.00;97999.25;106735;1276;22676;-75
2023/04/30 05:13:15;;;;;;;21.40;19.40;;;;;;;7.06;100.00;97997.80;106719;1276;22724;-75
2023/04/30 05:15:43;;;;;;;22.50;20.10;;;;;;;7.05;100.00;98003.05;106734;1276;22633;-75
2023/04/30 05:18:11;;;;;;;21.30;19.20;;;;;;;7.07;100.00;98008.34;106723;1276;22538;-75
2023/04/30 05:20:39;;;;;;;22.80;20.70;;;;;;;7.05;100.00;98008.95;106727;1276;24361;-75
2023/04/30 05:23:07;;;;;;;25.50;23.00;;;;;;;7.07;100.00;98017.09;106701;1276;24342;-75
2023/04/30 05:25:35;;;;;;;22.70;20.50;;;;;;;7.05;100.00;98013.72;106894;1276;22658;-75
2023/04/30 05:28:04;;;;;;;22.80;20.60;;;;;;;7.02;100.00;98018.48;106916;1276;22643;-75
2023/04/30 05:30:32;;;;;;;23.40;20.90;;;;;;;7.00;100.00;98016.25;106863;1276;22527;-75
2023/04/30 05:32:59;;;;;;;22.70;20.70;;;;;;;7.01;100.00;98024.61;106736;1276;25469;-75
2023/04/30 05:35:29;;;;;;;21.70;19.60;;;;;;;7.00;100.00;98024.17;106742;1276;25268;-75
2023/04/30 05:37:57;;;;;;;22.80;20.30;;;;;;;7.03;100.00;98028.02;106770;1276;22539;-74
2023/04/30 05:40:25;;;;;;;23.00;20.40;;;;;;;7.04;100.00;98033.98;106751;1276;22787;-75
2023/04/30 05:42:53;;;;;;;22.80;20.60;;;;;;;7.04;100.00;98035.20;106725;1276;22634;-75
2023/04/30 05:45:21;;;;;;;22.00;20.00;;;;;;;7.04;100.00;98036.23;106741;1276;22629;-75
2023/04/30 05:47:49;;;;;;;23.50;21.10;;;;;;;7.05;100.00;98039.64;106750;1276;24255;-75
2023/04/30 05:50:17;;;;;;;21.80;19.50;;;;;;;7.06;100.00;98044.84;106618;1275;202175;-75
2023/04/30 05:52:45;;;;;;;21.50;19.50;;;;;;;7.08;100.00;98046.50;106467;1276;23802;-75
2023/04/30 05:55:13;;;;;;;22.50;20.50;;;;;;;7.10;100.00;98047.08;106739;1276;23776;-75
2023/04/30 05:57:41;;;;;;;22.10;20.00;;;;;;;7.10;100.00;98053.46;106732;1276;23142;-76
2023/04/30 06:00:09;;;;;;;20.20;18.10;;;;;;;7.11;100.00;98053.77;106727;1276;22526;-76
2023/04/30 06:02:40;;;;;;;20.10;18.30;;;;;;;7.13;100.00;98062.56;106888;1276;25395;-76
2023/04/30 06:05:08;;;;;;;21.20;19.30;;;;;;;7.19;100.00;98065.65;106893;1276;24350;-76
2023/04/30 06:07:36;;;;;;;20.60;18.60;;;;;;;7.23;100.00;98067.19;106743;1276;22519;-75
2023/04/30 06:10:05;;;;;;;20.00;17.90;;;;;;;7.28;100.00;98068.84;106757;1276;22630;-75
2023/04/30 06:12:33;;;;;;;20.30;18.40;;;;;;;7.34;100.00;98072.20;106762;1276;25322;-75
2023/04/30 06:15:02;;;;;;;19.40;17.40;;;;;;;7.42;100.00;98077.38;106785;1276;22598;-75
2023/04/30 06:17:30;;;;;;;18.70;17.00;;;;;;;7.47;100.00;98076.98;106741;1276;22532;-74
2023/04/30 06:20:01;;;;;;;19.50;17.80;;;;;;;7.52;100.00;98078.90;106740;1276;22633;-76
2023/04/30 06:22:29;;;;;;;19.30;17.60;;;;;;;7.54;100.00;98075.30;106746;1275;22535;-75
2023/04/30 06:24:57;;;;;;;17.70;16.00;;;;;;;7.57;100.00;98081.84;106753;1276;24235;-75
2023/04/30 06:27:28;;;;;;;18.20;16.40;;;;;;;7.57;100.00;98078.56;106725;1276;22772;-75
2023/04/30 06:29:55;;;;;;;19.20;17.40;;;;;;;7.61;100.00;98086.42;106712;1276;24079;-75
2023/04/30 06:32:23;;;;;;;18.20;15.20;;;;;;;7.63;99.99;98087.75;106718;1276;25332;-75
2023/04/30 06:34:51;;;;;;;16.90;15.30;;;;;;;7.66;99.86;98091.81;106481;1276;22518;-75
2023/04/30 06:37:19;;;;;;;16.20;14.50;;;;;;;7.70;99.18;98091.64;106767;1276;25518;-75
2023/04/30 06:39:48;;;;;;;17.00;14.70;;;;;;;7.73;98.72;98089.65;106743;1276;25395;-76
2023/04/30 06:42:16;;;;;;;14.70;13.10;;;;;;;7.78;99.22;98096.01;106857;1276;23946;-75
2023/04/30 06:44:44;;;;;;;15.30;13.60;;;;;;;7.85;97.66;98098.49;106759;1276;24329;-75
2023/04/30 06:47:13;;;;;;;15.60;14.10;;;;;;;7.87;97.58;98102.52;106730;1276;24465;-75
2023/04/30 06:49:42;;;;;;;15.10;13.50;;;;;;;7.91;96.07;98102.43;106740;1276;23902;-75
2023/04/30 06:52:09;;;;;;;14.70;12.20;;;;;;;7.97;96.34;98099.77;106469;1275;22744;-75
2023/04/30 06:54:37;;;;;;;15.00;13.00;;;;;;;8.07;96.50;98104.45;106474;1276;22631;-75
2023/04/30 06:57:06;;;;;;;16.00;13.60;;;;;;;8.16;95.91;98108.95;106759;1276;22834;-75
2023/04/30 06:59:34;;;;;;;16.10;14.10;;;;;;;8.26;95.81;98109.97;106741;1276;22518;-75
2023/04/30 07:02:02;;;;;;;19.80;12.50;;;;;;;8.30;93.99;98114.35;106751;1276;22519;-75
2023/04/30 07:04:30;;;;;;;14.00;12.70;;;;;;;8.36;93.94;98116.25;106747;1276;24237;-75
2023/04/30 07:07:00;;;;;;;14.90;11.40;;;;;;;8.40;92.92;98117.90;106567;1276;25380;-75
2023/04/30 07:09:29;;;;;;;14.80;12.30;;;;;;;8.51;93.47;98116.77;106761;1276;25326;-75
2023/04/30 07:11:57;;;;;;;18.00;12.80;;;;;;;8.62;93.30;98119.11;106450;1276;23857;-75
2023/04/30 07:14:25;;;;;;;15.80;12.10;;;;;;;8.75;94.05;98116.86;106723;1276;22637;-76
2023/04/30 07:16:54;;;;;;;14.00;11.90;;;;;;;8.88;92.22;98123.09;106925;1276;22530;-76
2023/04/30 07:19:22;;;;;;;12.40;11.20;;;;;;;8.95;90.65;98126.20;106731;1276;22641;-76
2023/04/30 07:21:50;;;;;;;11.70;10.60;;;;;;;8.97;87.26;98122.20;106894;1276;22619;-75
2023/04/30 07:24:18;;;;;;;14.40;12.20;;;;;;;8.99;86.35;98127.23;106726;1276;22541;-77
2023/04/30 07:26:46;;;;;;;11.90;10.70;;;;;;;9.07;87.13;98130.06;106920;1276;23898;-78
2023/04/30 07:29:14;;;;;;;11.80;10.30;;;;;;;9.19;87.43;98129.26;106967;1276;24273;-78
2023/04/30 07:31:42;;;;;;;13.20;11.90;;;;;;;9.32;86.17;98132.83;106974;1276;24376;-77
2023/04/30 07:34:10;;;;;;;12.30;11.00;;;;;;;9.37;85.09;98131.17;106917;1276;25241;-78
2023/04/30 07:36:38;;;;;;;12.60;10.90;;;;;;;9.41;85.36;98131.08;106776;1276;22666;-78
2023/04/30 07:39:06;;;;;;;12.10;10.60;;;;;;;9.48;84.44;98134.97;106734;1276;25606;-77
2023/04/30 07:41:34;;;;;;;14.40;10.10;;;;;;;9.57;84.45;98137.31;106700;1276;25468;-76
2023/04/30 07:44:03;;;;;;;12.10;10.70;;;;;;;9.77;84.43;98132.40;106758;1276;22564;-76
2023/04/30 07:46:31;;;;;;;13.00;10.90;;;;;;;10.00;83.22;98140.30;106719;1276;25579;-76
2023/04/30 07:48:59;;;;;;;12.20;11.00;;;;;;;10.21;82.60;98145.14;106752;1276;22630;-76
2023/04/30 07:51:27;;;;;;;10.90;9.90;;;;;;;10.34;80.57;98141.83;106768;1276;25421;-77
2023/04/30 07:53:55;;;;;;;13.90;10.20;;;;;;;10.42;78.01;98147.64;106726;1276;22826;-76
2023/04/30 07:56:23;;;;;;;12.00;8.70;;;;;;;10.35;73.98;98146.55;106761;1276;24068;-77
2023/04/30 07:58:51;;;;;;;16.70;9.30;;;;;;;10.39;74.55;98144.44;106746;1275;24468;-77
2023/04/30 08:01:19;;;;;;;11.40;9.10;;;;;;;10.46;73.51;98153.39;106902;1276;22627;-77
2023/04/30 08:03:47;;;;;;;12.80;8.30;;;;;;;10.50;71.23;98157.77;106803;1276;22659;-78
2023/04/30 08:06:16;;;;;;;10.30;9.30;;;;;;;10.51;71.40;98155.65;106887;1276;25319;-79
2023/04/30 08:08:44;;;;;;;11.00;9.90;;;;;;;10.62;72.58;98157.81;106969;1276;24081;-77
2023/04/30 08:11:12;;;;;;;12.40;8.40;;;;;;;10.71;71.20;98158.10;106758;1276;22511;-77
2023/04/30 08:13:41;;;;;;;10.50;8.80;;;;;;;10.79;71.18;98158.84;106634;1276;22650;-78
2023/04/30 08:16:09;;;;;;;11.50;9.20;;;;;;;10.73;68.55;98160.01;107079;1276;22712;-77
2023/04/30 08:18:38;;;;;;;15.30;11.00;;;;;;;10.82;69.67;98164.77;106875;1276;23157;-77
2023/04/30 08:21:06;;;;;;;11.00;9.60;;;;;;;10.78;68.31;98166.08;106545;1276;25486;-78
2023/04/30 08:23:33;;;;;;;11.20;10.00;;;;;;;10.88;70.29;98166.02;106869;1276;25517;-78
2023/04/30 08:26:01;;;;;;;12.40;9.50;;;;;;;11.08;69.07;98167.39;106828;1276;25390;-78
2023/04/30 08:28:29;;;;;;;10.90;9.80;;;;;;;11.21;68.75;98168.95;106771;1275;25339;-77
2023/04/30 08:30:57;;;;;;;11.40;9.40;;;;;;;11.33;69.07;98170.40;106753;1276;23289;-78
2023/04/30 08:33:25;;;;;;;10.80;8.80;;;;;;;11.44;69.12;98176.05;107014;1276;24259;-77
2023/04/30 08:35:53;;;;;;;11.70;7.60;;;;;;;11.44;66.16;98172.74;106826;1276;25323;-77
2023/04/30 08:38:21;;;;;;;11.40;9.00;;;;;;;11.44;66.01;98173.41;106768;1254;25727;-77
2023/04/30 08:41:04;;;;;;;10.80;9.10;;;;;;;11.54;65.46;98173.23;106768;1276;23123;-77
2023/04/30 08:43:34;;;;;;;9.60;8.00;;;;;;;11.61;64.83;98170.70;106853;1276;26567;-77
2023/04/30 08:46:05;;;;;;;12.10;8.00;;;;;;;11.81;64.62;98173.31;106876;1273;22757;-77
2023/04/30 08:48:34;;;;;;;9.40;7.00;;;;;;;11.95;63.65;98170.73;106901;1275;24305;-76
2023/04/30 08:51:03;;;;;;;11.50;7.50;;;;;;;12.08;63.76;98173.89;106798;1276;25329;-76
2023/04/30 08:53:34;;;;;;;9.10;8.00;;;;;;;12.25;65.92;98166.06;106538;1276;24373;-77
2023/04/30 08:56:03;;;;;;;11.50;8.60;;;;;;;12.27;62.79;98180.73;106792;1276;22614;-77
2023/04/30 08:58:31;;;;;;;11.40;9.00;;;;;;;12.16;62.61;98180.55;106504;1276;23901;-77
2023/04/30 09:01:01;;;;;;;14.00;8.50;;;;;;;12.18;62.43;98173.14;106785;1276;22527;-77
2023/04/30 09:03:30;;;;;;;12.00;10.10;;;;;;;12.20;62.14;98170.43;106819;1276;22601;-76
2023/04/30 09:05:58;;;;;;;12.90;11.00;;;;;;;12.13;62.11;98177.88;106602;1276;24224;-77
2023/04/30 09:08:41;;;;;;;11.40;8.90;;;;;;;12.03;62.17;98182.99;106748;1276;24234;-78
2023/04/30 09:11:25;;;;;;;10.30;8.10;;;;;;;11.93;61.01;98189.64;106984;1276;25037;-78
2023/04/30 09:13:58;;;;;;;9.50;7.90;;;;;;;11.93;61.44;98180.88;106758;1276;25325;-77
2023/04/30 09:16:31;;;;;;;8.50;7.40;;;;;;;11.98;59.55;98187.90;106826;1276;25633;-79
2023/04/30 09:19:00;;;;;;;11.30;7.00;;;;;;;12.10;58.85;98189.23;107064;1276;22850;-78
2023/04/30 09:21:35;;;;;;;9.80;6.60;;;;;;;12.11;57.79;98186.41;107038;1267;22571;-78
2023/04/30 09:24:04;;;;;;;10.60;7.40;;;;;;;12.12;56.19;98186.94;106773;1254;25610;-78
2023/04/30 09:26:35;;;;;;;8.40;6.50;;;;;;;12.22;55.65;98185.58;106810;1276;22609;-77
2023/04/30 09:29:06;;;;;;;9.60;7.00;;;;;;;12.41;57.25;98186.91;106779;1276;25396;-77
2023/04/30 09:31:37;;;;;;;9.00;6.50;;;;;;;12.62;58.12;98193.64;106753;1254;25498;-77
2023/04/30 09:34:05;;;;;;;7.80;6.80;;;;;;;12.70;57.39;98189.08;106762;1254;25460;-77
2023/04/30 09:36:34;;;;;;;9.30;7.20;;;;;;;12.68;56.83;98184.96;106736;1276;22644;-77
2023/04/30 09:39:12;;;;;;;10.00;6.90;;;;;;;12.66;56.26;98184.36;106868;1276;22527;-77
2023/04/30 09:41:43;;;;;;;7.90;6.70;;;;;;;12.62;56.55;98189.42;107013;1276;24217;-78
2023/04/30 09:44:27;;;;;;;9.60;6.70;;;;;;;12.47;55.32;98188.66;106752;1276;24052;-77
2023/04/30 09:46:58;;;;;;;13.50;6.40;;;;;;;12.55;56.55;98182.93;106742;1276;22498;-77
2023/04/30 09:49:27;;;;;;;9.70;6.40;;;;;;;12.79;56.46;98180.66;106873;1276;22573;-77
2023/04/30 09:51:59;;;;;;;6.90;6.10;;;;;;;13.00;55.98;98171.34;106739;1276;22535;-77
2023/04/30 09:54:29;;;;;;;11.40;6.30;;;;;;;13.09;56.36;98175.66;106810;1276;22536;-77
2023/04/30 09:57:00;;;;;;;12.60;7.00;;;;;;;13.03;55.87;98176.25;106884;1276;22770;-78
2023/04/30 09:59:31;;;;;;;9.10;8.00;;;;;;;12.95;55.29;98180.83;106781;1276;22521;-77
2023/04/30 10:02:00;;;;;;;10.00;6.90;;;;;;;12.87;54.88;98180.95;106847;1276;23896;-76
2023/04/30 10:04:41;;;;;;;11.70;7.40;;;;;;;12.79;53.72;98181.52;106551;1276;22999;-79
2023/04/30 10:07:15;;;;;;;8.70;7.00;;;;;;;12.69;53.34;98177.30;106973;1276;22521;-78
2023/04/30 10:10:01;;;;;;;10.70;7.30;;;;;;;12.51;53.83;98182.84;106838;1276;22887;-78
2023/04/30 10:12:42;;;;;;;9.90;6.60;;;;;;;12.51;54.57;98173.66;106814;1276;22520;-78
2023/04/30 10:15:16;;;;;;;10.40;5.70;;;;;;;12.74;54.56;98172.32;106906;1276;22632;-78
2023/04/30 10:17:52;;;;;;;9.70;6.00;;;;;;;12.96;53.69;98165.11;106890;1272;22652;-78
2023/04/30 10:20:22;;;;;;;10.30;7.60;;;;;;;13.04;53.17;98169.99;106911;1276;22528;-78
2023/04/30 10:22:51;;;;;;;9.90;6.10;;;;;;;13.05;52.89;98169.97;106558;1276;22632;-78
2023/04/30 10:25:21;;;;;;;7.70;6.10;;;;;;;13.02;52.01;98167.17;106788;1253;22527;-80
2023/04/30 10:27:50;;;;;;;8.80;5.60;;;;;;;13.13;49.37;98162.52;106869;1276;22533;-81
2023/04/30 10:30:21;;;;;;;11.90;5.70;;;;;;;13.25;50.21;98163.23;106971;1276;22734;-78
2023/04/30 10:32:59;;;;;;;8.20;5.50;;;;;;;13.41;50.51;98154.59;106867;1276;22632;-78
2023/04/30 10:35:43;;;;;;;8.10;4.80;;;;;;;13.61;50.39;98160.06;107041;1276;25789;-78
2023/04/30 10:38:23;;;;;;;8.50;5.60;;;;;;;13.57;50.46;98165.20;106906;1276;22791;-78
2023/04/30 10:41:00;;;;;;;7.40;5.40;;;;;;;13.40;50.92;98164.48;106916;1276;22517;-79
2023/04/30 10:43:33;;;;;;;9.30;5.10;;;;;;;13.43;51.19;98157.69;106876;1276;22722;-80
2023/04/30 10:46:03;;;;;;;10.80;5.60;;;;;;;13.57;50.25;98166.10;106725;1276;25398;-79
2023/04/30 10:48:34;;;;;;;10.80;5.90;;;;;;;13.65;49.36;98164.73;106914;1276;22537;-79
2023/04/30 10:51:02;;;;;;;9.80;5.80;;;;;;;13.66;48.17;98163.67;106854;1276;25441;-79
2023/04/30 10:53:31;;;;;;;8.30;5.60;;;;;;;13.76;48.50;98153.88;106887;1276;24266;-81
2023/04/30 10:56:07;;;;;;;8.60;5.70;;;;;;;13.85;49.37;98144.58;106905;1276;22543;-78
2023/04/30 10:58:38;;;;;;;6.60;5.00;;;;;;;14.08;48.56;98149.67;106951;1276;22564;-78
2023/04/30 11:01:19;;;;;;;12.50;5.40;;;;;;;14.12;47.10;98150.76;107021;1276;22986;-78
2023/04/30 11:04:08;;;;;;;8.70;5.90;;;;;;;14.01;47.00;98153.08;106739;1276;25434;-77
2023/04/30 11:06:48;;;;;;;10.90;5.70;;;;;;;14.13;47.90;98146.94;106825;1276;25415;-77
2023/04/30 11:09:16;;;;;;;7.10;4.90;;;;;;;14.29;47.98;98138.88;106775;1276;24243;-77
2023/04/30 11:11:46;;;;;;;7.20;5.60;;;;;;;14.45;46.83;98140.00;106772;1276;26587;-77
2023/04/30 11:14:20;;;;;;;9.00;5.80;;;;;;;14.58;48.29;98141.47;106488;1276;22987;-77
2023/04/30 11:16:50;;;;;;;8.70;4.80;;;;;;;14.84;46.56;98139.66;106398;1276;25563;-77
2023/04/30 11:19:21;;;;;;;7.00;5.00;;;;;;;14.79;43.21;98142.23;106988;1276;23521;-78
2023/04/30 11:22:04;;;;;;;8.90;5.00;;;;;;;14.49;44.35;98147.04;106874;1276;25350;-77
2023/04/30 11:24:51;;;;;;;10.90;5.30;;;;;;;14.57;44.06;98141.73;106845;1276;23891;-78
2023/04/30 11:27:21;;;;;;;8.50;5.90;;;;;;;14.70;44.85;98142.56;106955;1276;22582;-78